sensor_id;sensor_type;location;lat;lon;timestamp;P1;durP1;ratioP1;P2;durP2;ratioP2
1344;SDS011;15375;48.540;9.268;2023-08-06T00:02:23;5.67;;;4.83;;
1344;SDS011;15375;48.540;9.268;2023-08-06T00:04:48;5.63;;;5.17;;
1344;SDS011;15375;48.540;9.268;2023-08-06T00:07:14;5.57;;;4.90;;
1344;SDS011;15375;48.540;9.268;2023-08-06T00:09:39;12.30;;;5.70;;
1344;SDS011;15375;48.540;9.268;2023-08-06T00:12:04;5.37;;;4.97;;
1344;SDS011;15375;48.540;9.268;2023-08-06T00:14:30;5.30;;;4.63;;
1344;SDS011;15375;48.540;9.268;2023-08-06T00:16:55;5.87;;;4.70;;
1344;SDS011;15375;48.540;9.268;2023-08-06T00:19:21;5.43;;;4.97;;
1344;SDS011;15375;48.540;9.268;2023-08-06T00:21:46;5.00;;;4.60;;
1344;SDS011;15375;48.540;9.268;2023-08-06T00:24:12;5.20;;;4.70;;
1344;SDS011;15375;48.540;9.268;2023-08-06T00:26:37;4.67;;;4.17;;
1344;SDS011;15375;48.540;9.268;2023-08-06T00:29:02;4.63;;;4.07;;
1344;SDS011;15375;48.540;9.268;2023-08-06T00:31:28;9.20;;;5.17;;
1344;SDS011;15375;48.540;9.268;2023-08-06T00:33:53;5.37;;;4.87;;
1344;SDS011;15375;48.540;9.268;2023-08-06T00:36:19;5.63;;;5.10;;
1344;SDS011;15375;48.540;9.268;2023-08-06T00:38:44;5.87;;;4.50;;
1344;SDS011;15375;48.540;9.268;2023-08-06T00:41:09;7.40;;;4.73;;
1344;SDS011;15375;48.540;9.268;2023-08-06T00:43:35;5.87;;;5.37;;
1344;SDS011;15375;48.540;9.268;2023-08-06T00:46:00;4.80;;;4.30;;
1344;SDS011;15375;48.540;9.268;2023-08-06T00:48:26;5.60;;;3.93;;
1344;SDS011;15375;48.540;9.268;2023-08-06T00:50:52;5.13;;;4.63;;
1344;SDS011;15375;48.540;9.268;2023-08-06T00:53:17;4.60;;;4.20;;
1344;SDS011;15375;48.540;9.268;2023-08-06T00:55:44;5.17;;;4.00;;
1344;SDS011;15375;48.540;9.268;2023-08-06T00:58:10;4.30;;;3.90;;
1344;SDS011;15375;48.540;9.268;2023-08-06T01:00:36;4.13;;;3.73;;
1344;SDS011;15375;48.540;9.268;2023-08-06T01:03:01;5.57;;;4.33;;
1344;SDS011;15375;48.540;9.268;2023-08-06T01:05:27;4.53;;;3.90;;
1344;SDS011;15375;48.540;9.268;2023-08-06T01:13:08;4.90;;;4.03;;
1344;SDS011;15375;48.540;9.268;2023-08-06T01:15:43;3.83;;;3.53;;
1344;SDS011;15375;48.540;9.268;2023-08-06T01:18:20;3.73;;;3.47;;
1344;SDS011;15375;48.540;9.268;2023-08-06T01:20:46;4.20;;;3.70;;
1344;SDS011;15375;48.540;9.268;2023-08-06T01:23:11;6.00;;;3.57;;
1344;SDS011;15375;48.540;9.268;2023-08-06T01:25:48;3.93;;;3.60;;
1344;SDS011;15375;48.540;9.268;2023-08-06T01:31:07;4.57;;;4.07;;
1344;SDS011;15375;48.540;9.268;2023-08-06T01:33:40;3.40;;;3.10;;
1344;SDS011;15375;48.540;9.268;2023-08-06T01:36:10;6.43;;;3.07;;
1344;SDS011;15375;48.540;9.268;2023-08-06T01:38:36;2.90;;;2.60;;
1344;SDS011;15375;48.540;9.268;2023-08-06T01:41:01;3.00;;;2.80;;
1344;SDS011;15375;48.540;9.268;2023-08-06T01:43:26;3.63;;;3.33;;
1344;SDS011;15375;48.540;9.268;2023-08-06T01:45:52;3.40;;;3.10;;
1344;SDS011;15375;48.540;9.268;2023-08-06T01:48:17;2.93;;;2.73;;
1344;SDS011;15375;48.540;9.268;2023-08-06T01:50:43;2.70;;;2.50;;
1344;SDS011;15375;48.540;9.268;2023-08-06T01:53:08;3.53;;;3.23;;
1344;SDS011;15375;48.540;9.268;2023-08-06T01:55:33;3.30;;;3.03;;
1344;SDS011;15375;48.540;9.268;2023-08-06T01:57:59;3.17;;;2.97;;
1344;SDS011;15375;48.540;9.268;2023-08-06T02:00:24;2.63;;;2.43;;
1344;SDS011;15375;48.540;9.268;2023-08-06T02:02:50;2.97;;;2.70;;
1344;SDS011;15375;48.540;9.268;2023-08-06T02:05:15;4.17;;;2.67;;
1344;SDS011;15375;48.540;9.268;2023-08-06T02:07:40;3.33;;;3.03;;
1344;SDS011;15375;48.540;9.268;2023-08-06T02:10:06;3.23;;;2.93;;
1344;SDS011;15375;48.540;9.268;2023-08-06T02:12:32;4.03;;;3.07;;
1344;SDS011;15375;48.540;9.268;2023-08-06T02:14:58;4.60;;;2.60;;
1344;SDS011;15375;48.540;9.268;2023-08-06T02:17:23;6.17;;;2.73;;
1344;SDS011;15375;48.540;9.268;2023-08-06T02:19:48;4.73;;;2.67;;
1344;SDS011;15375;48.540;9.268;2023-08-06T02:22:14;2.83;;;2.30;;
1344;SDS011;15375;48.540;9.268;2023-08-06T02:24:39;2.83;;;2.63;;
1344;SDS011;15375;48.540;9.268;2023-08-06T02:27:05;3.00;;;2.60;;
1344;SDS011;15375;48.540;9.268;2023-08-06T02:29:30;2.93;;;2.33;;
1344;SDS011;15375;48.540;9.268;2023-08-06T02:31:56;3.13;;;2.83;;
1344;SDS011;15375;48.540;9.268;2023-08-06T02:34:21;2.80;;;2.60;;
1344;SDS011;15375;48.540;9.268;2023-08-06T02:36:46;2.87;;;2.40;;
1344;SDS011;15375;48.540;9.268;2023-08-06T02:39:12;2.97;;;2.50;;
1344;SDS011;15375;48.540;9.268;2023-08-06T02:41:37;3.13;;;2.50;;
1344;SDS011;15375;48.540;9.268;2023-08-06T02:44:03;3.17;;;2.20;;
1344;SDS011;15375;48.540;9.268;2023-08-06T02:46:28;2.73;;;2.20;;
1344;SDS011;15375;48.540;9.268;2023-08-06T02:48:54;3.70;;;2.00;;
1344;SDS011;15375;48.540;9.268;2023-08-06T02:51:19;3.80;;;2.00;;
1344;SDS011;15375;48.540;9.268;2023-08-06T02:53:44;3.03;;;2.20;;
1344;SDS011;15375;48.540;9.268;2023-08-06T02:56:10;2.37;;;2.10;;
1344;SDS011;15375;48.540;9.268;2023-08-06T02:58:35;2.70;;;2.40;;
1344;SDS011;15375;48.540;9.268;2023-08-06T03:01:04;2.10;;;1.90;;
1344;SDS011;15375;48.540;9.268;2023-08-06T03:03:31;5.27;;;2.60;;
1344;SDS011;15375;48.540;9.268;2023-08-06T03:05:57;2.53;;;2.33;;
1344;SDS011;15375;48.540;9.268;2023-08-06T03:08:23;2.93;;;2.60;;
1344;SDS011;15375;48.540;9.268;2023-08-06T03:10:48;2.20;;;2.00;;
1344;SDS011;15375;48.540;9.268;2023-08-06T03:13:15;2.27;;;2.07;;
1344;SDS011;15375;48.540;9.268;2023-08-06T03:15:40;2.23;;;2.03;;
1344;SDS011;15375;48.540;9.268;2023-08-06T03:18:06;5.33;;;2.20;;
1344;SDS011;15375;48.540;9.268;2023-08-06T03:20:32;2.00;;;1.90;;
1344;SDS011;15375;48.540;9.268;2023-08-06T03:22:57;3.57;;;1.50;;
1344;SDS011;15375;48.540;9.268;2023-08-06T03:25:23;2.80;;;2.00;;
1344;SDS011;15375;48.540;9.268;2023-08-06T03:27:48;5.03;;;2.00;;
1344;SDS011;15375;48.540;9.268;2023-08-06T03:30:14;1.97;;;1.87;;
1344;SDS011;15375;48.540;9.268;2023-08-06T03:32:40;2.03;;;1.60;;
1344;SDS011;15375;48.540;9.268;2023-08-06T03:35:05;4.10;;;1.70;;
1344;SDS011;15375;48.540;9.268;2023-08-06T03:37:31;2.40;;;1.77;;
1344;SDS011;15375;48.540;9.268;2023-08-06T03:39:56;3.57;;;2.53;;
1344;SDS011;15375;48.540;9.268;2023-08-06T03:42:22;3.40;;;1.60;;
1344;SDS011;15375;48.540;9.268;2023-08-06T03:44:47;3.10;;;1.80;;
1344;SDS011;15375;48.540;9.268;2023-08-06T03:47:13;1.90;;;1.80;;
1344;SDS011;15375;48.540;9.268;2023-08-06T03:49:39;1.70;;;1.60;;
1344;SDS011;15375;48.540;9.268;2023-08-06T03:52:05;6.10;;;1.87;;
1344;SDS011;15375;48.540;9.268;2023-08-06T03:54:30;4.10;;;2.07;;
1344;SDS011;15375;48.540;9.268;2023-08-06T03:56:56;1.70;;;1.60;;
1344;SDS011;15375;48.540;9.268;2023-08-06T03:59:21;2.63;;;1.77;;
1344;SDS011;15375;48.540;9.268;2023-08-06T04:01:47;1.80;;;1.50;;
1344;SDS011;15375;48.540;9.268;2023-08-06T04:04:12;2.57;;;1.60;;
1344;SDS011;15375;48.540;9.268;2023-08-06T04:06:38;3.30;;;1.97;;
1344;SDS011;15375;48.540;9.268;2023-08-06T04:09:03;1.83;;;1.73;;
1344;SDS011;15375;48.540;9.268;2023-08-06T04:11:29;3.30;;;1.57;;
1344;SDS011;15375;48.540;9.268;2023-08-06T04:13:54;2.63;;;1.87;;
1344;SDS011;15375;48.540;9.268;2023-08-06T04:16:20;3.57;;;2.23;;
1344;SDS011;15375;48.540;9.268;2023-08-06T04:18:46;3.90;;;1.90;;
1344;SDS011;15375;48.540;9.268;2023-08-06T04:21:12;2.73;;;1.60;;
1344;SDS011;15375;48.540;9.268;2023-08-06T04:23:37;1.87;;;1.70;;
1344;SDS011;15375;48.540;9.268;2023-08-06T04:26:03;2.60;;;1.67;;
1344;SDS011;15375;48.540;9.268;2023-08-06T04:28:28;1.27;;;1.17;;
1344;SDS011;15375;48.540;9.268;2023-08-06T04:30:54;1.90;;;1.30;;
1344;SDS011;15375;48.540;9.268;2023-08-06T04:33:22;2.33;;;1.43;;
1344;SDS011;15375;48.540;9.268;2023-08-06T04:35:53;3.33;;;2.00;;
1344;SDS011;15375;48.540;9.268;2023-08-06T04:38:19;2.00;;;1.60;;
1344;SDS011;15375;48.540;9.268;2023-08-06T04:40:44;5.03;;;1.70;;
1344;SDS011;15375;48.540;9.268;2023-08-06T04:43:10;1.90;;;1.57;;
1344;SDS011;15375;48.540;9.268;2023-08-06T04:45:35;3.23;;;2.20;;
1344;SDS011;15375;48.540;9.268;2023-08-06T04:48:00;2.63;;;2.00;;
1344;SDS011;15375;48.540;9.268;2023-08-06T04:50:26;2.70;;;2.50;;
1344;SDS011;15375;48.540;9.268;2023-08-06T04:52:51;3.20;;;1.90;;
1344;SDS011;15375;48.540;9.268;2023-08-06T04:55:16;1.73;;;1.40;;
1344;SDS011;15375;48.540;9.268;2023-08-06T04:57:42;1.93;;;1.70;;
1344;SDS011;15375;48.540;9.268;2023-08-06T05:00:07;3.70;;;1.97;;
1344;SDS011;15375;48.540;9.268;2023-08-06T05:02:33;2.00;;;1.80;;
1344;SDS011;15375;48.540;9.268;2023-08-06T05:04:59;2.00;;;1.00;;
1344;SDS011;15375;48.540;9.268;2023-08-06T05:07:25;2.87;;;1.73;;
1344;SDS011;15375;48.540;9.268;2023-08-06T05:09:50;1.70;;;1.43;;
1344;SDS011;15375;48.540;9.268;2023-08-06T05:12:16;4.33;;;1.70;;
1344;SDS011;15375;48.540;9.268;2023-08-06T05:14:41;1.20;;;1.10;;
1344;SDS011;15375;48.540;9.268;2023-08-06T05:17:07;1.40;;;1.30;;
1344;SDS011;15375;48.540;9.268;2023-08-06T05:19:32;3.07;;;1.00;;
1344;SDS011;15375;48.540;9.268;2023-08-06T05:21:58;2.23;;;1.77;;
1344;SDS011;15375;48.540;9.268;2023-08-06T05:24:23;3.33;;;1.63;;
1344;SDS011;15375;48.540;9.268;2023-08-06T05:26:49;2.90;;;1.60;;
1344;SDS011;15375;48.540;9.268;2023-08-06T05:29:16;1.33;;;1.23;;
1344;SDS011;15375;48.540;9.268;2023-08-06T05:31:41;4.40;;;1.10;;
1344;SDS011;15375;48.540;9.268;2023-08-06T05:34:07;4.67;;;1.50;;
1344;SDS011;15375;48.540;9.268;2023-08-06T05:36:32;6.00;;;1.13;;
1344;SDS011;15375;48.540;9.268;2023-08-06T05:38:58;1.23;;;1.13;;
1344;SDS011;15375;48.540;9.268;2023-08-06T05:41:23;4.67;;;1.97;;
1344;SDS011;15375;48.540;9.268;2023-08-06T05:43:49;1.50;;;1.20;;
1344;SDS011;15375;48.540;9.268;2023-08-06T05:46:14;1.70;;;0.90;;
1344;SDS011;15375;48.540;9.268;2023-08-06T05:48:39;2.63;;;1.00;;
1344;SDS011;15375;48.540;9.268;2023-08-06T05:51:05;2.27;;;1.30;;
1344;SDS011;15375;48.540;9.268;2023-08-06T05:53:31;1.47;;;1.10;;
1344;SDS011;15375;48.540;9.268;2023-08-06T05:55:56;3.47;;;1.03;;
1344;SDS011;15375;48.540;9.268;2023-08-06T05:58:22;1.50;;;1.10;;
1344;SDS011;15375;48.540;9.268;2023-08-06T06:00:49;1.07;;;0.73;;
1344;SDS011;15375;48.540;9.268;2023-08-06T06:03:14;1.90;;;1.10;;
1344;SDS011;15375;48.540;9.268;2023-08-06T06:05:40;2.60;;;0.77;;
1344;SDS011;15375;48.540;9.268;2023-08-06T06:08:05;1.17;;;1.03;;
1344;SDS011;15375;48.540;9.268;2023-08-06T06:10:31;1.93;;;1.10;;
1344;SDS011;15375;48.540;9.268;2023-08-06T06:12:56;1.97;;;1.10;;
1344;SDS011;15375;48.540;9.268;2023-08-06T06:15:21;1.63;;;1.10;;
1344;SDS011;15375;48.540;9.268;2023-08-06T06:17:47;0.93;;;0.90;;
1344;SDS011;15375;48.540;9.268;2023-08-06T06:20:12;1.03;;;0.63;;
1344;SDS011;15375;48.540;9.268;2023-08-06T06:22:38;2.00;;;0.90;;
1344;SDS011;15375;48.540;9.268;2023-08-06T06:25:03;3.07;;;0.80;;
1344;SDS011;15375;48.540;9.268;2023-08-06T06:27:29;1.87;;;0.77;;
1344;SDS011;15375;48.540;9.268;2023-08-06T06:29:55;0.70;;;0.60;;
1344;SDS011;15375;48.540;9.268;2023-08-06T06:32:21;0.80;;;0.80;;
1344;SDS011;15375;48.540;9.268;2023-08-06T06:34:47;1.63;;;0.60;;
1344;SDS011;15375;48.540;9.268;2023-08-06T06:37:12;1.20;;;1.10;;
1344;SDS011;15375;48.540;9.268;2023-08-06T06:39:38;3.37;;;1.00;;
1344;SDS011;15375;48.540;9.268;2023-08-06T06:42:04;1.73;;;1.00;;
1344;SDS011;15375;48.540;9.268;2023-08-06T06:44:29;1.60;;;0.97;;
1344;SDS011;15375;48.540;9.268;2023-08-06T06:46:55;1.70;;;1.03;;
1344;SDS011;15375;48.540;9.268;2023-08-06T06:49:20;1.37;;;0.80;;
1344;SDS011;15375;48.540;9.268;2023-08-06T06:51:46;2.60;;;1.10;;
1344;SDS011;15375;48.540;9.268;2023-08-06T06:54:11;2.30;;;1.43;;
1344;SDS011;15375;48.540;9.268;2023-08-06T06:56:37;2.20;;;1.90;;
1344;SDS011;15375;48.540;9.268;2023-08-06T06:59:02;2.17;;;1.77;;
1344;SDS011;15375;48.540;9.268;2023-08-06T07:01:27;2.93;;;2.13;;
1344;SDS011;15375;48.540;9.268;2023-08-06T07:03:53;2.63;;;2.17;;
1344;SDS011;15375;48.540;9.268;2023-08-06T07:06:18;2.63;;;1.33;;
1344;SDS011;15375;48.540;9.268;2023-08-06T07:08:44;2.30;;;1.73;;
1344;SDS011;15375;48.540;9.268;2023-08-06T07:11:10;0.97;;;0.90;;
1344;SDS011;15375;48.540;9.268;2023-08-06T07:13:35;3.10;;;2.17;;
1344;SDS011;15375;48.540;9.268;2023-08-06T07:16:01;0.70;;;0.60;;
1344;SDS011;15375;48.540;9.268;2023-08-06T07:18:26;1.00;;;0.70;;
1344;SDS011;15375;48.540;9.268;2023-08-06T07:20:52;1.50;;;0.53;;
1344;SDS011;15375;48.540;9.268;2023-08-06T07:23:20;1.90;;;0.90;;
1344;SDS011;15375;48.540;9.268;2023-08-06T07:25:46;0.77;;;0.67;;
1344;SDS011;15375;48.540;9.268;2023-08-06T07:28:12;0.83;;;0.80;;
1344;SDS011;15375;48.540;9.268;2023-08-06T07:30:41;0.93;;;0.70;;
1344;SDS011;15375;48.540;9.268;2023-08-06T07:33:08;1.87;;;1.57;;
1344;SDS011;15375;48.540;9.268;2023-08-06T07:35:33;0.70;;;0.70;;
1344;SDS011;15375;48.540;9.268;2023-08-06T07:37:59;1.17;;;0.93;;
1344;SDS011;15375;48.540;9.268;2023-08-06T07:40:24;3.10;;;0.80;;
1344;SDS011;15375;48.540;9.268;2023-08-06T07:42:50;1.07;;;0.57;;
1344;SDS011;15375;48.540;9.268;2023-08-06T07:45:15;1.23;;;0.40;;
1344;SDS011;15375;48.540;9.268;2023-08-06T07:47:41;1.37;;;0.60;;
1344;SDS011;15375;48.540;9.268;2023-08-06T07:50:08;0.60;;;0.50;;
1344;SDS011;15375;48.540;9.268;2023-08-06T07:52:33;1.47;;;0.90;;
1344;SDS011;15375;48.540;9.268;2023-08-06T07:54:59;2.23;;;1.37;;
1344;SDS011;15375;48.540;9.268;2023-08-06T07:57:26;2.00;;;1.80;;
1344;SDS011;15375;48.540;9.268;2023-08-06T07:59:52;1.40;;;1.30;;
1344;SDS011;15375;48.540;9.268;2023-08-06T08:02:18;0.60;;;0.50;;
1344;SDS011;15375;48.540;9.268;2023-08-06T08:04:44;0.80;;;0.67;;
1344;SDS011;15375;48.540;9.268;2023-08-06T08:07:12;1.50;;;1.40;;
1344;SDS011;15375;48.540;9.268;2023-08-06T08:09:37;0.70;;;0.70;;
1344;SDS011;15375;48.540;9.268;2023-08-06T08:12:03;0.77;;;0.60;;
1344;SDS011;15375;48.540;9.268;2023-08-06T08:14:28;1.90;;;1.00;;
1344;SDS011;15375;48.540;9.268;2023-08-06T08:16:54;1.70;;;0.70;;
1344;SDS011;15375;48.540;9.268;2023-08-06T08:19:20;0.93;;;0.93;;
1344;SDS011;15375;48.540;9.268;2023-08-06T08:21:46;2.73;;;0.40;;
1344;SDS011;15375;48.540;9.268;2023-08-06T08:24:11;0.73;;;0.67;;
1344;SDS011;15375;48.540;9.268;2023-08-06T08:26:37;0.63;;;0.63;;
1344;SDS011;15375;48.540;9.268;2023-08-06T08:29:02;0.40;;;0.40;;
1344;SDS011;15375;48.540;9.268;2023-08-06T08:31:28;0.50;;;0.50;;
1344;SDS011;15375;48.540;9.268;2023-08-06T08:33:54;0.93;;;0.40;;
1344;SDS011;15375;48.540;9.268;2023-08-06T08:36:20;0.50;;;0.40;;
1344;SDS011;15375;48.540;9.268;2023-08-06T08:38:45;0.50;;;0.50;;
1344;SDS011;15375;48.540;9.268;2023-08-06T08:41:11;0.40;;;0.30;;
1344;SDS011;15375;48.540;9.268;2023-08-06T08:43:36;0.40;;;0.30;;
1344;SDS011;15375;48.540;9.268;2023-08-06T08:46:03;0.60;;;0.33;;
1344;SDS011;15375;48.540;9.268;2023-08-06T08:48:31;0.57;;;0.50;;
1344;SDS011;15375;48.540;9.268;2023-08-06T08:50:56;0.73;;;0.73;;
1344;SDS011;15375;48.540;9.268;2023-08-06T08:53:23;0.77;;;0.77;;
1344;SDS011;15375;48.540;9.268;2023-08-06T08:55:50;0.50;;;0.50;;
1344;SDS011;15375;48.540;9.268;2023-08-06T08:58:15;2.00;;;0.70;;
1344;SDS011;15375;48.540;9.268;2023-08-06T09:00:45;0.60;;;0.50;;
1344;SDS011;15375;48.540;9.268;2023-08-06T09:03:13;0.97;;;0.80;;
1344;SDS011;15375;48.540;9.268;2023-08-06T09:05:40;0.73;;;0.73;;
1344;SDS011;15375;48.540;9.268;2023-08-06T09:08:09;0.53;;;0.40;;
1344;SDS011;15375;48.540;9.268;2023-08-06T09:10:37;0.40;;;0.40;;
1344;SDS011;15375;48.540;9.268;2023-08-06T09:13:04;1.80;;;1.10;;
1344;SDS011;15375;48.540;9.268;2023-08-06T09:15:31;1.03;;;0.70;;
1344;SDS011;15375;48.540;9.268;2023-08-06T09:18:08;0.87;;;0.87;;
1344;SDS011;15375;48.540;9.268;2023-08-06T09:20:34;0.80;;;0.80;;
1344;SDS011;15375;48.540;9.268;2023-08-06T09:23:06;0.80;;;0.50;;
1344;SDS011;15375;48.540;9.268;2023-08-06T09:25:32;1.63;;;0.70;;
1344;SDS011;15375;48.540;9.268;2023-08-06T09:27:58;0.90;;;0.70;;
1344;SDS011;15375;48.540;9.268;2023-08-06T09:30:30;0.40;;;0.40;;
1344;SDS011;15375;48.540;9.268;2023-08-06T09:32:57;1.30;;;0.90;;
1344;SDS011;15375;48.540;9.268;2023-08-06T09:35:22;1.30;;;1.10;;
1344;SDS011;15375;48.540;9.268;2023-08-06T09:37:48;0.40;;;0.40;;
1344;SDS011;15375;48.540;9.268;2023-08-06T09:42:51;1.13;;;0.80;;
1344;SDS011;15375;48.540;9.268;2023-08-06T09:45:17;0.40;;;0.30;;
1344;SDS011;15375;48.540;9.268;2023-08-06T09:47:42;0.80;;;0.40;;
1344;SDS011;15375;48.540;9.268;2023-08-06T09:50:17;0.40;;;0.40;;
1344;SDS011;15375;48.540;9.268;2023-08-06T09:52:44;0.50;;;0.50;;
1344;SDS011;15375;48.540;9.268;2023-08-06T09:55:10;0.50;;;0.50;;
1344;SDS011;15375;48.540;9.268;2023-08-06T09:57:37;0.60;;;0.50;;
1344;SDS011;15375;48.540;9.268;2023-08-06T10:00:04;0.93;;;0.60;;
1344;SDS011;15375;48.540;9.268;2023-08-06T10:02:34;0.60;;;0.60;;
1344;SDS011;15375;48.540;9.268;2023-08-06T10:05:02;0.50;;;0.33;;
1344;SDS011;15375;48.540;9.268;2023-08-06T10:07:28;0.33;;;0.30;;
1344;SDS011;15375;48.540;9.268;2023-08-06T10:09:55;0.40;;;0.30;;
1344;SDS011;15375;48.540;9.268;2023-08-06T10:12:21;0.50;;;0.40;;
1344;SDS011;15375;48.540;9.268;2023-08-06T10:14:50;1.33;;;0.40;;
1344;SDS011;15375;48.540;9.268;2023-08-06T10:17:18;0.60;;;0.60;;
1344;SDS011;15375;48.540;9.268;2023-08-06T10:19:47;2.27;;;1.00;;
1344;SDS011;15375;48.540;9.268;2023-08-06T10:22:15;0.50;;;0.40;;
1344;SDS011;15375;48.540;9.268;2023-08-06T10:27:10;0.70;;;0.60;;
1344;SDS011;15375;48.540;9.268;2023-08-06T10:29:36;0.60;;;0.50;;
1344;SDS011;15375;48.540;9.268;2023-08-06T10:32:03;0.53;;;0.53;;
1344;SDS011;15375;48.540;9.268;2023-08-06T10:37:36;0.47;;;0.40;;
1344;SDS011;15375;48.540;9.268;2023-08-06T10:40:02;0.60;;;0.40;;
1344;SDS011;15375;48.540;9.268;2023-08-06T10:42:28;1.20;;;0.50;;
1344;SDS011;15375;48.540;9.268;2023-08-06T10:47:40;0.37;;;0.30;;
1344;SDS011;15375;48.540;9.268;2023-08-06T10:50:16;1.73;;;0.40;;
1344;SDS011;15375;48.540;9.268;2023-08-06T10:52:46;4.10;;;0.67;;
1344;SDS011;15375;48.540;9.268;2023-08-06T10:55:12;0.50;;;0.40;;
1344;SDS011;15375;48.540;9.268;2023-08-06T10:57:39;0.40;;;0.40;;
1344;SDS011;15375;48.540;9.268;2023-08-06T11:00:05;0.60;;;0.50;;
1344;SDS011;15375;48.540;9.268;2023-08-06T11:02:35;0.40;;;0.30;;
1344;SDS011;15375;48.540;9.268;2023-08-06T11:05:05;1.00;;;0.30;;
1344;SDS011;15375;48.540;9.268;2023-08-06T11:07:34;0.57;;;0.30;;
1344;SDS011;15375;48.540;9.268;2023-08-06T11:10:01;0.60;;;0.50;;
1344;SDS011;15375;48.540;9.268;2023-08-06T11:12:29;1.17;;;0.40;;
1344;SDS011;15375;48.540;9.268;2023-08-06T11:14:54;0.43;;;0.30;;
1344;SDS011;15375;48.540;9.268;2023-08-06T11:17:21;0.40;;;0.40;;
1344;SDS011;15375;48.540;9.268;2023-08-06T11:19:46;0.40;;;0.40;;
1344;SDS011;15375;48.540;9.268;2023-08-06T11:22:12;0.50;;;0.50;;
1344;SDS011;15375;48.540;9.268;2023-08-06T11:24:39;0.50;;;0.40;;
1344;SDS011;15375;48.540;9.268;2023-08-06T11:27:11;0.60;;;0.40;;
1344;SDS011;15375;48.540;9.268;2023-08-06T11:29:41;0.50;;;0.43;;
1344;SDS011;15375;48.540;9.268;2023-08-06T11:32:07;0.30;;;0.30;;
1344;SDS011;15375;48.540;9.268;2023-08-06T11:34:34;0.70;;;0.43;;
1344;SDS011;15375;48.540;9.268;2023-08-06T11:37:00;1.23;;;0.40;;
1344;SDS011;15375;48.540;9.268;2023-08-06T11:39:27;0.60;;;0.40;;
1344;SDS011;15375;48.540;9.268;2023-08-06T11:41:53;0.40;;;0.30;;
1344;SDS011;15375;48.540;9.268;2023-08-06T11:44:19;0.43;;;0.30;;
1344;SDS011;15375;48.540;9.268;2023-08-06T11:46:51;0.50;;;0.33;;
1344;SDS011;15375;48.540;9.268;2023-08-06T11:49:17;0.30;;;0.30;;
1344;SDS011;15375;48.540;9.268;2023-08-06T11:51:46;0.30;;;0.30;;
1344;SDS011;15375;48.540;9.268;2023-08-06T11:54:12;0.40;;;0.30;;
1344;SDS011;15375;48.540;9.268;2023-08-06T11:56:38;0.30;;;0.30;;
1344;SDS011;15375;48.540;9.268;2023-08-06T11:59:03;0.83;;;0.30;;
1344;SDS011;15375;48.540;9.268;2023-08-06T12:01:29;0.50;;;0.40;;
1344;SDS011;15375;48.540;9.268;2023-08-06T12:04:00;0.73;;;0.50;;
1344;SDS011;15375;48.540;9.268;2023-08-06T12:06:29;0.60;;;0.50;;
1344;SDS011;15375;48.540;9.268;2023-08-06T12:08:54;1.07;;;0.40;;
1344;SDS011;15375;48.540;9.268;2023-08-06T12:11:23;1.00;;;0.40;;
1344;SDS011;15375;48.540;9.268;2023-08-06T12:13:51;0.40;;;0.40;;
1344;SDS011;15375;48.540;9.268;2023-08-06T12:16:17;1.13;;;0.40;;
1344;SDS011;15375;48.540;9.268;2023-08-06T12:18:44;0.80;;;0.50;;
1344;SDS011;15375;48.540;9.268;2023-08-06T12:21:10;0.73;;;0.40;;
1344;SDS011;15375;48.540;9.268;2023-08-06T12:23:35;0.50;;;0.40;;
1344;SDS011;15375;48.540;9.268;2023-08-06T12:26:01;0.73;;;0.73;;
1344;SDS011;15375;48.540;9.268;2023-08-06T12:28:26;0.47;;;0.47;;
1344;SDS011;15375;48.540;9.268;2023-08-06T12:30:52;0.70;;;0.70;;
1344;SDS011;15375;48.540;9.268;2023-08-06T12:33:20;0.70;;;0.60;;
1344;SDS011;15375;48.540;9.268;2023-08-06T12:35:45;1.30;;;1.10;;
1344;SDS011;15375;48.540;9.268;2023-08-06T12:38:11;1.00;;;0.90;;
1344;SDS011;15375;48.540;9.268;2023-08-06T12:40:36;1.13;;;0.87;;
1344;SDS011;15375;48.540;9.268;2023-08-06T12:43:02;1.43;;;1.20;;
1344;SDS011;15375;48.540;9.268;2023-08-06T12:45:27;1.30;;;1.00;;
1344;SDS011;15375;48.540;9.268;2023-08-06T12:47:53;2.20;;;1.03;;
1344;SDS011;15375;48.540;9.268;2023-08-06T12:50:18;1.50;;;1.00;;
1344;SDS011;15375;48.540;9.268;2023-08-06T12:52:44;2.43;;;0.93;;
1344;SDS011;15375;48.540;9.268;2023-08-06T12:55:09;0.80;;;0.80;;
1344;SDS011;15375;48.540;9.268;2023-08-06T12:57:35;1.60;;;1.10;;
1344;SDS011;15375;48.540;9.268;2023-08-06T13:00:01;1.10;;;1.00;;
1344;SDS011;15375;48.540;9.268;2023-08-06T13:02:26;0.70;;;0.70;;
1344;SDS011;15375;48.540;9.268;2023-08-06T13:04:55;3.03;;;1.00;;
1344;SDS011;15375;48.540;9.268;2023-08-06T13:07:20;1.40;;;1.00;;
1344;SDS011;15375;48.540;9.268;2023-08-06T13:09:46;0.97;;;0.93;;
1344;SDS011;15375;48.540;9.268;2023-08-06T13:12:11;0.87;;;0.87;;
1344;SDS011;15375;48.540;9.268;2023-08-06T13:14:37;2.13;;;1.10;;
1344;SDS011;15375;48.540;9.268;2023-08-06T13:17:02;1.10;;;1.00;;
1344;SDS011;15375;48.540;9.268;2023-08-06T13:19:31;0.83;;;0.83;;
1344;SDS011;15375;48.540;9.268;2023-08-06T13:22:01;1.20;;;1.00;;
1344;SDS011;15375;48.540;9.268;2023-08-06T13:24:30;1.00;;;0.90;;
1344;SDS011;15375;48.540;9.268;2023-08-06T13:26:56;2.70;;;1.60;;
1344;SDS011;15375;48.540;9.268;2023-08-06T13:29:21;1.43;;;0.73;;
1344;SDS011;15375;48.540;9.268;2023-08-06T13:31:47;0.93;;;0.93;;
1344;SDS011;15375;48.540;9.268;2023-08-06T13:34:12;1.03;;;0.93;;
1344;SDS011;15375;48.540;9.268;2023-08-06T13:36:38;0.97;;;0.90;;
1344;SDS011;15375;48.540;9.268;2023-08-06T13:39:03;0.80;;;0.80;;
1344;SDS011;15375;48.540;9.268;2023-08-06T13:41:30;0.90;;;0.90;;
1344;SDS011;15375;48.540;9.268;2023-08-06T13:43:56;3.47;;;0.63;;
1344;SDS011;15375;48.540;9.268;2023-08-06T13:46:21;0.70;;;0.70;;
1344;SDS011;15375;48.540;9.268;2023-08-06T13:48:47;1.07;;;0.90;;
1344;SDS011;15375;48.540;9.268;2023-08-06T13:51:15;0.60;;;0.60;;
1344;SDS011;15375;48.540;9.268;2023-08-06T13:53:41;0.57;;;0.57;;
1344;SDS011;15375;48.540;9.268;2023-08-06T13:56:08;0.90;;;0.70;;
1344;SDS011;15375;48.540;9.268;2023-08-06T13:58:37;0.80;;;0.80;;
1344;SDS011;15375;48.540;9.268;2023-08-06T14:01:03;1.20;;;0.70;;
1344;SDS011;15375;48.540;9.268;2023-08-06T14:03:29;0.60;;;0.60;;
1344;SDS011;15375;48.540;9.268;2023-08-06T14:05:54;1.17;;;0.80;;
1344;SDS011;15375;48.540;9.268;2023-08-06T14:08:23;0.60;;;0.60;;
1344;SDS011;15375;48.540;9.268;2023-08-06T14:10:50;1.27;;;1.17;;
1344;SDS011;15375;48.540;9.268;2023-08-06T14:13:19;1.53;;;0.80;;
1344;SDS011;15375;48.540;9.268;2023-08-06T14:15:45;0.70;;;0.70;;
1344;SDS011;15375;48.540;9.268;2023-08-06T14:18:13;0.60;;;0.60;;
1344;SDS011;15375;48.540;9.268;2023-08-06T14:20:40;1.60;;;0.70;;
1344;SDS011;15375;48.540;9.268;2023-08-06T14:23:06;1.10;;;0.63;;
1344;SDS011;15375;48.540;9.268;2023-08-06T14:25:32;0.50;;;0.50;;
1344;SDS011;15375;48.540;9.268;2023-08-06T14:27:57;0.70;;;0.63;;
1344;SDS011;15375;48.540;9.268;2023-08-06T14:30:23;0.57;;;0.57;;
1344;SDS011;15375;48.540;9.268;2023-08-06T14:32:48;0.73;;;0.70;;
1344;SDS011;15375;48.540;9.268;2023-08-06T14:35:13;0.90;;;0.90;;
1344;SDS011;15375;48.540;9.268;2023-08-06T14:37:39;1.70;;;0.57;;
1344;SDS011;15375;48.540;9.268;2023-08-06T14:40:06;0.70;;;0.70;;
1344;SDS011;15375;48.540;9.268;2023-08-06T14:42:32;1.33;;;0.57;;
1344;SDS011;15375;48.540;9.268;2023-08-06T14:44:59;3.13;;;0.70;;
1344;SDS011;15375;48.540;9.268;2023-08-06T14:47:24;1.53;;;1.03;;
1344;SDS011;15375;48.540;9.268;2023-08-06T14:49:50;2.10;;;0.87;;
1344;SDS011;15375;48.540;9.268;2023-08-06T14:52:16;0.80;;;0.80;;
1344;SDS011;15375;48.540;9.268;2023-08-06T14:54:41;0.90;;;0.70;;
1344;SDS011;15375;48.540;9.268;2023-08-06T14:57:07;2.03;;;0.87;;
1344;SDS011;15375;48.540;9.268;2023-08-06T14:59:33;8.73;;;2.03;;
1344;SDS011;15375;48.540;9.268;2023-08-06T15:01:58;0.80;;;0.80;;
1344;SDS011;15375;48.540;9.268;2023-08-06T15:04:24;0.67;;;0.60;;
1344;SDS011;15375;48.540;9.268;2023-08-06T15:06:49;1.33;;;1.13;;
1344;SDS011;15375;48.540;9.268;2023-08-06T15:09:15;0.80;;;0.63;;
1344;SDS011;15375;48.540;9.268;2023-08-06T15:11:40;1.50;;;0.80;;
1344;SDS011;15375;48.540;9.268;2023-08-06T15:14:06;0.67;;;0.67;;